Monday, October 20, 2014, 5:40 AM EDT

KOFP, Hanover County Municipal

Location: Ashland, VA, United States Lat: 37.7
Local Time: 5:40 AM EDT ( 9:40 GMT) Lon: -77.433
Time Zone: US/Eastern Elev: 203 ft

Show me the last for .
Show Decoded

2014-10-20 04:54 METAR KOFP 200854Z AUTO 00000KT 10SM CLR 03/02 A3013 RMK AO2 SLP203 T00330022
                 55002 =
2014-10-20 03:54 METAR KOFP 200754Z AUTO 00000KT 10SM CLR 03/02 A3013 RMK AO2 SLP202 T00280017 =
2014-10-20 00:54 METAR KOFP 200454Z AUTO 18004KT 10SM CLR 04/03 A3014 RMK AO2 SLP206 T00390028
                 401720039 =
2014-10-19 22:54 METAR KOFP 200254Z AUTO 00000KT 10SM CLR 05/03 A3015 RMK AO2 SLP208 T00500033
                 51013 =
2014-10-19 21:54 METAR KOFP 200154Z AUTO 00000KT 10SM CLR 06/03 A3014 RMK AO2 SLP206 T00560033 =
2014-10-19 20:54 METAR KOFP 200054Z AUTO 00000KT 10SM CLR 07/04 A3013 RMK AO2 SLP203 T00670039 =
2014-10-19 19:54 METAR KOFP 192354Z AUTO 00000KT 10SM CLR 08/04 A3011 RMK AO2 SLP196 T00780039
                 10172 20078 53016 =
2014-10-19 18:54 METAR KOFP 192254Z AUTO 00000KT 10SM CLR 10/04 A3008 RMK AO2 SLP186 T01000039 =
2014-10-19 17:54 METAR KOFP 192154Z AUTO 00000KT 10SM CLR 15/01 A3007 RMK AO2 SLP182 T01500006 =
2014-10-19 16:54 METAR KOFP 192054Z AUTO 32007KT 10SM CLR 17/M02 A3006 RMK AO2 SLP179 T01671017
                 55004 =
2014-10-19 15:54 METAR KOFP 191954Z AUTO 29009G17KT 10SM CLR 17/M02 A3006 RMK AO2 SLP178
                 T01671017 =
2014-10-19 14:54 METAR KOFP 191854Z AUTO 31009G17KT 10SM CLR 17/M01 A3006 RMK AO2 SLP178
                 T01671011 =
2014-10-19 13:54 METAR KOFP 191754Z AUTO 30012G16KT 10SM CLR 16/M01 A3007 RMK AO2 SLP183
                 T01611006 10161 20083 58008 =
2014-10-19 12:54 METAR KOFP 191654Z AUTO 31011G21KT 10SM CLR 15/M01 A3009 RMK AO2 SLP190
                 T01501006 =
2014-10-19 11:54 METAR KOFP 191554Z AUTO VRB05G17KT 10SM CLR 14/00 A3010 RMK AO2 SLP192 T01390000
                 =
2014-10-19 10:54 METAR KOFP 191454Z AUTO 33010G17KT 10SM CLR 13/01 A3010 RMK AO2 SLP191 T01280011
                 51022 =
2014-10-19 09:54 METAR KOFP 191354Z AUTO 36007G16KT 330V050 10SM CLR 13/03 A3008 RMK AO2 SLP186
                 T01280028 =
2014-10-19 08:54 METAR KOFP 191254Z AUTO 32005KT 10SM CLR 11/05 A3006 RMK AO2 SLP179 T01110050 =
2014-10-19 07:54 METAR KOFP 191154Z AUTO 00000KT 10SM CLR 08/05 A3003 RMK AO2 SLP168 T00830050
                 10100 20078 53025 =
2014-10-19 06:54 METAR KOFP 191054Z AUTO 27004KT 10SM BKN048 09/05 A3000 RMK AO2 SLP159 T00940050
                 =
2014-10-19 05:54 METAR KOFP 190954Z AUTO 29007KT 10SM BKN050 10/05 A2998 RMK AO2 SLP150 T01000050
                 =

Support USWX by starting your Amazon purchase here.